createdAt,value
2022-08-29T00:00:38.869Z,100.00
2022-08-29T00:03:09.728Z,100.00
2022-08-29T00:05:37.908Z,100.00
2022-08-29T00:08:08.047Z,100.00
2022-08-29T00:10:37.089Z,100.00
2022-08-29T00:13:05.890Z,100.00
2022-08-29T00:15:33.221Z,100.00
2022-08-29T00:18:12.173Z,100.00
2022-08-29T00:20:39.110Z,100.00
2022-08-29T00:23:07.110Z,100.00
2022-08-29T00:25:34.561Z,100.00
2022-08-29T00:28:02.129Z,100.00
2022-08-29T00:30:29.565Z,100.00
2022-08-29T00:32:56.431Z,100.00
2022-08-29T00:35:27.737Z,100.00
2022-08-29T00:37:55.146Z,100.00
2022-08-29T00:40:26.651Z,100.00
2022-08-29T00:42:53.570Z,100.00
2022-08-29T00:45:20.686Z,100.00
2022-08-29T00:48:08.848Z,100.00
2022-08-29T00:50:40.868Z,100.00
2022-08-29T00:53:13.654Z,100.00
2022-08-29T00:55:43.485Z,100.00
2022-08-29T00:58:25.658Z,100.00
2022-08-29T01:00:53.900Z,100.00
2022-08-29T01:03:21.237Z,100.00
2022-08-29T01:05:48.822Z,100.00
2022-08-29T01:08:16.013Z,100.00
2022-08-29T01:11:02.059Z,100.00
2022-08-29T01:13:35.428Z,100.00
2022-08-29T01:16:03.792Z,100.00
2022-08-29T01:18:35.448Z,100.00
2022-08-29T01:21:09.102Z,100.00
2022-08-29T01:23:51.350Z,100.00
2022-08-29T01:26:18.338Z,100.00
2022-08-29T01:28:48.463Z,100.00
2022-08-29T01:31:46.075Z,100.00
2022-08-29T01:34:10.787Z,100.00
2022-08-29T01:37:02.042Z,100.00
2022-08-29T01:39:32.153Z,100.00
2022-08-29T01:42:01.283Z,100.00
2022-08-29T01:44:28.417Z,100.00
2022-08-29T01:47:02.731Z,100.00
2022-08-29T01:49:33.053Z,100.00
2022-08-29T01:52:00.186Z,100.00
2022-08-29T01:54:29.489Z,100.00
2022-08-29T01:56:56.372Z,100.00
2022-08-29T01:59:27.342Z,100.00
2022-08-29T02:02:13.153Z,100.00
2022-08-29T02:04:40.952Z,100.00
2022-08-29T02:07:12.039Z,100.00
2022-08-29T02:09:40.334Z,100.00
2022-08-29T02:12:13.920Z,100.00
2022-08-29T02:14:41.507Z,100.00
2022-08-29T02:17:08.926Z,100.00
2022-08-29T02:19:36.676Z,100.00
2022-08-29T02:22:04.567Z,100.00
2022-08-29T02:24:31.399Z,100.00
2022-08-29T02:26:58.781Z,100.00
2022-08-29T02:29:30.875Z,100.00
2022-08-29T02:32:07.193Z,100.00
2022-08-29T02:34:35.018Z,100.00
2022-08-29T02:37:02.581Z,100.00
2022-08-29T02:39:29.745Z,100.00
2022-08-29T02:41:56.855Z,100.00
2022-08-29T02:44:23.609Z,100.00
2022-08-29T02:46:50.909Z,100.00
2022-08-29T02:49:17.714Z,100.00
2022-08-29T02:51:45.421Z,100.00
2022-08-29T02:54:12.935Z,100.00
2022-08-29T02:56:41.222Z,100.00
2022-08-29T02:59:08.641Z,100.00
2022-08-29T03:01:38.778Z,100.00
2022-08-29T03:04:06.533Z,100.00
2022-08-29T03:06:33.359Z,100.00
2022-08-29T03:09:01.232Z,100.00
2022-08-29T03:11:28.910Z,100.00
2022-08-29T03:13:57.734Z,100.00
2022-08-29T03:16:26.338Z,100.00
2022-08-29T03:18:53.993Z,100.00
2022-08-29T03:21:23.987Z,100.00
2022-08-29T03:23:51.727Z,100.00
2022-08-29T03:26:19.693Z,100.00
2022-08-29T03:28:46.894Z,100.00
2022-08-29T03:31:13.782Z,100.00
2022-08-29T03:33:40.583Z,100.00
2022-08-29T03:36:14.288Z,100.00
2022-08-29T03:38:46.643Z,100.00
2022-08-29T03:41:22.466Z,100.00
2022-08-29T03:43:49.511Z,100.00
2022-08-29T03:46:16.336Z,100.00
2022-08-29T03:48:43.508Z,100.00
2022-08-29T03:51:10.344Z,100.00
2022-08-29T03:53:37.093Z,100.00
2022-08-29T03:56:04.625Z,100.00
2022-08-29T03:58:31.736Z,100.00
2022-08-29T04:00:59.190Z,100.00
2022-08-29T04:03:31.032Z,100.00
2022-08-29T04:05:59.035Z,100.00
2022-08-29T04:08:25.849Z,100.00
2022-08-29T04:10:52.623Z,100.00
2022-08-29T04:13:19.352Z,100.00
2022-08-29T04:15:46.212Z,100.00
2022-08-29T04:18:13.004Z,100.00
2022-08-29T04:20:45.181Z,100.00
2022-08-29T04:23:14.008Z,100.00
2022-08-29T04:25:42.899Z,100.00
2022-08-29T04:28:12.543Z,100.00
2022-08-29T04:30:51.292Z,100.00
2022-08-29T04:33:22.844Z,100.00
2022-08-29T04:35:50.713Z,100.00
2022-08-29T04:38:17.674Z,100.00
2022-08-29T04:40:44.991Z,100.00
2022-08-29T04:43:12.171Z,100.00
2022-08-29T04:45:42.767Z,100.00
2022-08-29T04:48:10.951Z,100.00
2022-08-29T04:50:38.061Z,100.00
2022-08-29T04:53:04.909Z,100.00
2022-08-29T04:55:31.905Z,100.00
2022-08-29T04:57:58.904Z,100.00
2022-08-29T05:00:30.255Z,100.00
2022-08-29T05:02:57.891Z,100.00
2022-08-29T05:05:25.383Z,100.00
2022-08-29T05:07:52.247Z,100.00
2022-08-29T05:10:21.327Z,100.00
2022-08-29T05:12:48.996Z,100.00
2022-08-29T05:15:16.825Z,100.00
2022-08-29T05:17:44.309Z,100.00
2022-08-29T05:20:11.525Z,100.00
2022-08-29T05:22:39.453Z,100.00
2022-08-29T05:25:07.141Z,100.00
2022-08-29T05:27:34.336Z,100.00
2022-08-29T05:30:01.576Z,100.00
2022-08-29T05:32:28.343Z,100.00
2022-08-29T05:34:56.288Z,100.00
2022-08-29T05:37:23.962Z,100.00
2022-08-29T05:39:51.512Z,100.00
2022-08-29T05:42:21.133Z,100.00
2022-08-29T05:44:48.015Z,100.00
2022-08-29T05:47:18.389Z,100.00
2022-08-29T05:49:47.362Z,100.00
2022-08-29T05:52:16.717Z,100.00
2022-08-29T05:54:44.278Z,100.00
2022-08-29T05:57:18.171Z,100.00
2022-08-29T05:59:46.782Z,100.00
2022-08-29T06:02:13.724Z,100.00
2022-08-29T06:04:41.137Z,100.00
2022-08-29T06:07:09.030Z,100.00
2022-08-29T06:09:37.509Z,100.00
2022-08-29T06:12:05.552Z,100.00
2022-08-29T06:14:32.928Z,100.00
2022-08-29T06:16:59.974Z,100.00
2022-08-29T06:19:26.876Z,100.00
2022-08-29T06:21:57.038Z,100.00
2022-08-29T06:24:23.873Z,100.00
2022-08-29T06:26:50.629Z,100.00
2022-08-29T06:29:17.517Z,100.00
2022-08-29T06:31:44.348Z,100.00
2022-08-29T06:34:11.285Z,100.00
2022-08-29T06:36:38.890Z,100.00
2022-08-29T06:39:09.423Z,99.58
2022-08-29T06:41:38.276Z,82.83
2022-08-29T06:44:05.790Z,80.51
2022-08-29T06:46:35.578Z,71.86
2022-08-29T06:49:04.163Z,70.43
2022-08-29T06:51:33.347Z,73.77
2022-08-29T06:54:02.278Z,79.93
2022-08-29T06:56:29.947Z,83.89
2022-08-29T06:58:57.348Z,85.76
2022-08-29T07:01:25.117Z,89.76
2022-08-29T07:03:57.065Z,87.68
2022-08-29T07:06:25.498Z,92.52
2022-08-29T07:08:55.337Z,91.89
2022-08-29T07:11:27.946Z,92.71
2022-08-29T07:13:57.348Z,89.89
2022-08-29T07:16:24.181Z,85.04
2022-08-29T07:18:53.504Z,69.96
2022-08-29T07:21:23.659Z,61.87
2022-08-29T07:23:51.948Z,55.20
2022-08-29T07:26:30.583Z,51.44
2022-08-29T07:29:03.351Z,53.22
2022-08-29T07:31:31.308Z,56.96
2022-08-29T07:34:02.428Z,58.39
2022-08-29T07:36:31.445Z,57.69
2022-08-29T07:38:58.482Z,53.81
2022-08-29T07:41:25.643Z,52.88
2022-08-29T07:43:52.812Z,52.05
2022-08-29T07:46:20.756Z,55.47
2022-08-29T07:48:48.223Z,61.19
2022-08-29T07:51:18.960Z,59.74
2022-08-29T07:53:46.958Z,56.46
2022-08-29T07:56:18.734Z,61.41
2022-08-29T07:58:46.500Z,64.18
2022-08-29T08:01:21.131Z,64.00
2022-08-29T08:03:52.312Z,66.43
2022-08-29T08:06:21.471Z,66.53
2022-08-29T08:08:49.675Z,64.40
2022-08-29T08:11:17.721Z,63.88
2022-08-29T08:13:44.853Z,62.25
2022-08-29T08:16:15.145Z,62.49
2022-08-29T08:18:43.996Z,60.96
2022-08-29T08:21:14.396Z,57.91
2022-08-29T08:23:42.120Z,48.00
2022-08-29T08:26:10.914Z,47.73
2022-08-29T08:28:38.533Z,44.50
2022-08-29T08:31:07.718Z,45.59
2022-08-29T08:33:36.058Z,44.35
2022-08-29T08:36:15.235Z,41.18
2022-08-29T08:38:43.128Z,41.11
2022-08-29T08:41:16.917Z,40.96
2022-08-29T08:43:55.176Z,41.11
2022-08-29T08:46:34.457Z,44.43
2022-08-29T08:49:03.748Z,51.97
2022-08-29T08:51:35.141Z,54.08
2022-08-29T08:54:06.866Z,54.92
2022-08-29T08:56:44.206Z,56.37
2022-08-29T08:59:30.294Z,52.64
2022-08-29T09:02:01.696Z,52.65
2022-08-29T09:04:52.968Z,52.41
2022-08-29T09:08:10.687Z,46.96
2022-08-29T09:10:58.543Z,43.37
2022-08-29T09:13:46.787Z,40.60
2022-08-29T09:16:41.513Z,40.29
2022-08-29T09:19:11.551Z,41.90
2022-08-29T09:21:44.306Z,42.58
2022-08-29T09:24:32.338Z,42.29
2022-08-29T09:26:59.084Z,44.00
2022-08-29T09:29:31.056Z,45.60
2022-08-29T09:32:20.181Z,46.71
2022-08-29T09:37:36.792Z,49.69
2022-08-29T09:40:18.930Z,49.87
2022-08-29T09:43:00.656Z,50.21
2022-08-29T09:45:27.616Z,50.91
2022-08-29T09:48:21.327Z,52.11
2022-08-29T09:50:48.581Z,52.28
2022-08-29T09:53:24.628Z,51.00
2022-08-29T09:55:53.258Z,50.63
2022-08-29T09:58:20.167Z,47.29
2022-08-29T10:01:06.399Z,52.01
2022-08-29T10:03:36.712Z,53.35
2022-08-29T10:06:15.054Z,55.62
2022-08-29T10:08:44.001Z,55.24
2022-08-29T10:11:16.823Z,54.20
2022-08-29T10:13:54.432Z,52.75
2022-08-29T10:16:39.979Z,54.35
2022-08-29T10:19:33.050Z,52.04
2022-08-29T10:22:25.441Z,49.17
2022-08-29T10:25:06.396Z,51.11
2022-08-29T10:27:43.150Z,52.25
2022-08-29T10:30:11.760Z,50.27
2022-08-29T10:33:04.764Z,49.10
2022-08-29T10:35:44.135Z,51.90
2022-08-29T10:38:23.106Z,53.76
2022-08-29T10:40:55.459Z,55.28
2022-08-29T10:43:32.077Z,52.87
2022-08-29T10:46:27.996Z,53.88
2022-08-29T10:49:24.053Z,56.64
2022-08-29T10:52:11.686Z,56.44
2022-08-29T10:54:46.105Z,57.06
2022-08-29T10:57:25.915Z,58.61
2022-08-29T11:00:13.252Z,58.42
2022-08-29T11:03:13.433Z,58.84
2022-08-29T11:05:46.140Z,59.45
2022-08-29T11:08:23.478Z,60.17
2022-08-29T11:10:52.643Z,59.75
2022-08-29T11:13:59.445Z,58.42
2022-08-29T11:16:34.094Z,56.93
2022-08-29T11:19:05.704Z,57.38
2022-08-29T11:21:37.926Z,57.34
2022-08-29T11:24:07.332Z,59.06
2022-08-29T11:26:34.019Z,58.98
2022-08-29T11:29:31.510Z,56.51
2022-08-29T11:32:36.258Z,60.06
2022-08-29T11:35:24.463Z,59.82
2022-08-29T11:38:20.189Z,61.86
2022-08-29T11:41:26.374Z,59.29
2022-08-29T11:43:40.844Z,59.41
2022-08-29T11:46:10.271Z,57.88
2022-08-29T11:48:40.933Z,57.79
2022-08-29T11:51:39.412Z,57.23
2022-08-29T11:54:25.558Z,56.40
2022-08-29T11:57:01.608Z,53.98
2022-08-29T11:59:48.652Z,53.46
2022-08-29T12:02:27.629Z,52.12
2022-08-29T12:04:57.306Z,51.46
2022-08-29T12:07:35.314Z,50.41
2022-08-29T12:10:06.728Z,49.67
2022-08-29T12:12:46.068Z,49.96
2022-08-29T12:15:28.080Z,52.18
2022-08-29T12:18:02.560Z,52.17
2022-08-29T12:20:30.241Z,52.81
2022-08-29T12:23:06.899Z,49.22
2022-08-29T12:26:21.076Z,47.96
2022-08-29T12:28:46.716Z,48.30
2022-08-29T12:31:31.789Z,47.56
2022-08-29T12:34:23.496Z,47.72
2022-08-29T12:37:16.390Z,47.56
2022-08-29T12:40:01.932Z,45.04
2022-08-29T12:42:47.426Z,46.42
2022-08-29T12:45:19.133Z,47.27
2022-08-29T12:47:52.653Z,48.51
2022-08-29T12:50:24.237Z,46.54
2022-08-29T12:53:15.778Z,46.54
2022-08-29T12:55:46.662Z,46.22
2022-08-29T12:58:14.292Z,48.65
2022-08-29T13:00:42.242Z,46.96
2022-08-29T13:03:19.753Z,50.22
2022-08-29T13:05:47.606Z,50.33
2022-08-29T13:08:37.418Z,51.51
2022-08-29T13:11:11.696Z,51.29
2022-08-29T13:13:39.030Z,51.18
2022-08-29T13:16:08.861Z,52.31
2022-08-29T13:18:49.174Z,50.08
2022-08-29T13:21:34.735Z,50.03
2022-08-29T13:24:19.556Z,51.34
2022-08-29T13:27:04.717Z,51.16
2022-08-29T13:29:39.071Z,50.79
2022-08-29T13:32:24.503Z,51.91
2022-08-29T13:35:06.362Z,48.86
2022-08-29T13:37:39.079Z,50.40
2022-08-29T13:40:50.645Z,51.08
2022-08-29T13:43:43.377Z,51.98
2022-08-29T13:46:14.816Z,52.11
2022-08-29T13:48:42.870Z,51.23
2022-08-29T13:51:09.922Z,52.30
2022-08-29T13:53:36.727Z,52.58
2022-08-29T13:56:04.642Z,52.94
2022-08-29T13:58:31.673Z,51.44
2022-08-29T14:00:58.748Z,53.35
2022-08-29T14:03:25.729Z,54.13
2022-08-29T14:05:56.736Z,51.46
2022-08-29T14:08:24.171Z,51.74
2022-08-29T14:10:51.919Z,52.78
2022-08-29T14:13:18.862Z,54.15
2022-08-29T14:15:46.197Z,54.58
2022-08-29T14:18:13.444Z,55.30
2022-08-29T14:20:40.361Z,54.53
2022-08-29T14:23:07.365Z,55.02
2022-08-29T14:25:34.245Z,55.28
2022-08-29T14:28:01.085Z,56.07
2022-08-29T14:30:27.869Z,56.05
2022-08-29T14:32:54.761Z,56.07
2022-08-29T14:35:27.410Z,56.32
2022-08-29T14:37:58.679Z,57.22
2022-08-29T14:40:26.168Z,56.69
2022-08-29T14:42:55.971Z,57.26
2022-08-29T14:45:22.785Z,56.83
2022-08-29T14:47:49.570Z,57.40
2022-08-29T14:50:16.847Z,56.41
2022-08-29T14:52:43.774Z,56.67
2022-08-29T14:55:11.861Z,56.67
2022-08-29T14:57:39.320Z,56.63
2022-08-29T15:00:09.946Z,56.74
2022-08-29T15:02:36.694Z,56.26
2022-08-29T15:05:03.776Z,57.46
2022-08-29T15:07:30.592Z,57.58
2022-08-29T15:09:57.634Z,59.45
2022-08-29T15:12:27.941Z,59.00
2022-08-29T15:14:56.425Z,58.10
2022-08-29T15:17:24.231Z,59.42
2022-08-29T15:20:33.956Z,60.18
2022-08-29T15:22:39.889Z,59.22
2022-08-29T15:25:07.224Z,59.48
2022-08-29T15:27:34.228Z,60.64
2022-08-29T15:30:01.074Z,60.99
2022-08-29T15:32:27.850Z,62.26
2022-08-29T15:34:54.617Z,61.65
2022-08-29T15:37:22.434Z,61.33
2022-08-29T15:39:54.467Z,61.09
2022-08-29T15:42:28.676Z,61.23
2022-08-29T15:44:56.326Z,62.04
2022-08-29T15:47:23.084Z,62.38
2022-08-29T15:49:53.379Z,63.31
2022-08-29T15:52:20.247Z,62.49
2022-08-29T15:54:46.990Z,62.93
2022-08-29T15:57:13.828Z,64.88
2022-08-29T15:59:57.523Z,65.50
2022-08-29T16:02:24.876Z,66.07
2022-08-29T16:04:56.059Z,67.39
2022-08-29T16:07:29.107Z,67.81
2022-08-29T16:09:56.670Z,67.97
2022-08-29T16:12:23.472Z,68.79
2022-08-29T16:14:59.568Z,69.27
2022-08-29T16:17:29.911Z,69.96
2022-08-29T16:19:58.261Z,69.63
2022-08-29T16:22:27.852Z,70.81
2022-08-29T16:24:55.709Z,71.16
2022-08-29T16:27:24.288Z,70.89
2022-08-29T16:29:52.637Z,72.36
2022-08-29T16:32:20.300Z,73.04
2022-08-29T16:34:47.136Z,72.80
2022-08-29T16:37:13.890Z,74.09
2022-08-29T16:39:40.804Z,74.31
2022-08-29T16:42:07.970Z,74.68
2022-08-29T16:44:34.794Z,74.52
2022-08-29T16:47:02.161Z,74.50
2022-08-29T16:49:28.967Z,75.19
2022-08-29T16:51:57.558Z,74.55
2022-08-29T16:54:25.734Z,75.58
2022-08-29T16:56:53.022Z,76.18
2022-08-29T16:59:19.810Z,76.15
2022-08-29T17:01:52.266Z,76.02
2022-08-29T17:04:28.603Z,75.86
2022-08-29T17:06:56.329Z,75.86
2022-08-29T17:09:24.902Z,75.46
2022-08-29T17:11:52.882Z,76.58
2022-08-29T17:14:21.446Z,77.13
2022-08-29T17:16:50.100Z,77.68
2022-08-29T17:19:17.522Z,78.67
2022-08-29T17:21:45.058Z,79.30
2022-08-29T17:24:12.963Z,80.32
2022-08-29T17:26:43.224Z,80.85
2022-08-29T17:29:11.365Z,80.80
2022-08-29T17:31:38.348Z,81.21
2022-08-29T17:34:07.539Z,81.60
2022-08-29T17:36:36.827Z,82.08
2022-08-29T17:39:05.358Z,82.59
2022-08-29T17:41:33.111Z,83.40
2022-08-29T17:44:02.219Z,83.47
2022-08-29T17:46:29.806Z,83.58
2022-08-29T17:48:56.938Z,83.50
2022-08-29T17:51:23.719Z,83.23
2022-08-29T17:53:51.249Z,82.54
2022-08-29T17:56:29.536Z,83.34
2022-08-29T17:58:57.640Z,83.58
2022-08-29T18:01:24.675Z,83.31
2022-08-29T18:03:52.044Z,83.34
2022-08-29T18:06:19.469Z,84.40
2022-08-29T18:08:48.483Z,84.79
2022-08-29T18:11:17.790Z,87.43
2022-08-29T18:13:45.382Z,88.77
2022-08-29T18:16:12.347Z,86.79
2022-08-29T18:18:39.776Z,87.66
2022-08-29T18:21:06.636Z,89.61
2022-08-29T18:23:33.745Z,90.03
2022-08-29T18:26:01.736Z,90.57
2022-08-29T18:28:28.518Z,88.78
2022-08-29T18:30:56.061Z,91.35
2022-08-29T18:33:24.546Z,89.18
2022-08-29T18:35:55.657Z,90.63
2022-08-29T18:38:23.227Z,90.36
2022-08-29T18:40:53.788Z,92.04
2022-08-29T18:43:21.603Z,92.06
2022-08-29T18:45:48.896Z,92.39
2022-08-29T18:48:16.958Z,91.48
2022-08-29T18:50:44.894Z,94.74
2022-08-29T18:53:18.351Z,95.26
2022-08-29T18:55:51.212Z,96.27
2022-08-29T18:58:21.649Z,95.92
2022-08-29T19:00:48.838Z,95.82
2022-08-29T19:03:16.000Z,97.13
2022-08-29T19:05:49.744Z,99.22
2022-08-29T19:08:19.710Z,100.00
2022-08-29T19:10:47.979Z,99.62
2022-08-29T19:13:15.850Z,99.50
2022-08-29T19:15:45.403Z,99.34
2022-08-29T19:18:14.301Z,100.00
2022-08-29T19:21:00.275Z,99.72
2022-08-29T19:23:27.099Z,100.00
2022-08-29T19:25:54.146Z,100.00
2022-08-29T19:28:21.588Z,100.00
2022-08-29T19:30:49.617Z,100.00
2022-08-29T19:33:18.592Z,100.00
2022-08-29T19:35:49.243Z,100.00
2022-08-29T19:38:16.718Z,100.00
2022-08-29T19:40:43.725Z,100.00
2022-08-29T19:45:59.950Z,100.00
2022-08-29T19:48:28.590Z,100.00
2022-08-29T19:50:57.065Z,100.00
2022-08-29T19:53:26.386Z,100.00
2022-08-29T19:55:56.879Z,100.00
2022-08-29T19:58:31.317Z,100.00
2022-08-29T20:01:03.260Z,100.00
2022-08-29T20:03:31.008Z,100.00
2022-08-29T20:05:59.881Z,100.00
2022-08-29T20:08:27.632Z,100.00
2022-08-29T20:10:58.448Z,100.00
2022-08-29T20:13:27.362Z,100.00
2022-08-29T20:15:55.304Z,100.00
2022-08-29T20:18:22.664Z,100.00
2022-08-29T20:20:49.700Z,100.00
2022-08-29T20:23:17.561Z,100.00
2022-08-29T20:25:46.004Z,100.00
2022-08-29T20:28:15.421Z,100.00
2022-08-29T20:30:43.783Z,100.00
2022-08-29T20:33:11.684Z,100.00
2022-08-29T20:35:57.567Z,100.00
2022-08-29T20:38:24.286Z,100.00
2022-08-29T20:40:52.264Z,100.00
2022-08-29T20:43:19.868Z,100.00
2022-08-29T20:45:47.398Z,100.00
2022-08-29T20:48:14.522Z,100.00
2022-08-29T20:50:41.784Z,100.00
2022-08-29T20:53:09.252Z,100.00
2022-08-29T20:55:41.487Z,100.00
2022-08-29T20:58:08.465Z,100.00
2022-08-29T21:00:35.280Z,100.00
2022-08-29T21:03:20.717Z,100.00
2022-08-29T21:05:47.513Z,100.00
2022-08-29T21:08:22.921Z,100.00
2022-08-29T21:10:53.343Z,100.00
2022-08-29T21:13:20.737Z,100.00
2022-08-29T21:15:47.549Z,100.00
2022-08-29T21:18:19.048Z,100.00
2022-08-29T21:20:53.752Z,100.00
2022-08-29T21:23:23.203Z,100.00
2022-08-29T21:25:55.646Z,100.00
2022-08-29T21:28:24.999Z,100.00
2022-08-29T21:30:52.893Z,100.00
2022-08-29T21:33:20.734Z,100.00
2022-08-29T21:35:49.770Z,100.00
2022-08-29T21:38:17.174Z,100.00
2022-08-29T21:40:50.321Z,100.00
2022-08-29T21:43:19.517Z,100.00
2022-08-29T21:45:47.622Z,100.00
2022-08-29T21:48:14.404Z,100.00
2022-08-29T21:50:41.622Z,100.00
2022-08-29T21:53:11.424Z,100.00
2022-08-29T21:55:38.238Z,100.00
2022-08-29T21:58:05.097Z,100.00
2022-08-29T22:00:34.974Z,100.00
2022-08-29T22:03:07.169Z,100.00
2022-08-29T22:05:34.245Z,100.00
2022-08-29T22:08:04.396Z,100.00
2022-08-29T22:10:36.253Z,100.00
2022-08-29T22:13:03.824Z,100.00
2022-08-29T22:15:49.075Z,100.00
2022-08-29T22:18:16.264Z,100.00
2022-08-29T22:20:46.727Z,100.00
2022-08-29T22:23:14.955Z,100.00
2022-08-29T22:25:45.530Z,100.00
2022-08-29T22:28:12.562Z,100.00
2022-08-29T22:30:39.417Z,100.00
2022-08-29T22:33:06.844Z,100.00
2022-08-29T22:35:35.682Z,100.00
2022-08-29T22:38:02.926Z,100.00
2022-08-29T22:40:30.092Z,100.00
2022-08-29T22:42:57.364Z,100.00
2022-08-29T22:45:24.630Z,100.00
2022-08-29T22:47:51.474Z,100.00
2022-08-29T22:50:26.651Z,100.00
2022-08-29T22:52:58.725Z,100.00
2022-08-29T22:57:51.961Z,100.00
2022-08-29T23:00:24.785Z,100.00
2022-08-29T23:02:53.057Z,100.00
2022-08-29T23:05:21.518Z,100.00
2022-08-29T23:07:48.634Z,100.00
2022-08-29T23:10:15.913Z,100.00
2022-08-29T23:12:42.756Z,100.00
2022-08-29T23:15:13.540Z,100.00
2022-08-29T23:17:40.875Z,100.00
2022-08-29T23:20:11.492Z,100.00
2022-08-29T23:22:38.980Z,100.00
2022-08-29T23:25:10.913Z,100.00
2022-08-29T23:27:37.660Z,100.00
2022-08-29T23:30:07.281Z,100.00
2022-08-29T23:32:34.045Z,100.00
2022-08-29T23:35:00.844Z,100.00
2022-08-29T23:37:27.662Z,100.00
2022-08-29T23:39:54.529Z,100.00
2022-08-29T23:42:21.426Z,100.00
2022-08-29T23:44:48.741Z,100.00
2022-08-29T23:47:16.061Z,100.00
2022-08-29T23:49:42.850Z,100.00
2022-08-29T23:52:09.690Z,100.00
2022-08-29T23:54:36.986Z,100.00
2022-08-29T23:57:04.586Z,100.00
2022-08-29T23:59:51.996Z,100.00
